createdAt,value
2022-10-08T00:03:14.449Z,73.30
2022-10-08T00:08:15.853Z,73.13
2022-10-08T00:13:17.276Z,72.87
2022-10-08T00:18:19.908Z,73.20
2022-10-08T00:23:21.341Z,72.58
2022-10-08T00:28:22.838Z,72.11
2022-10-08T00:33:24.309Z,72.56
2022-10-08T00:38:25.705Z,71.86
2022-10-08T00:43:42.466Z,72.69
2022-10-08T00:48:43.946Z,74.09
2022-10-08T00:53:45.501Z,74.20
2022-10-08T00:58:48.973Z,74.74
2022-10-08T01:03:50.417Z,75.56
2022-10-08T01:09:19.301Z,76.01
2022-10-08T01:14:43.551Z,74.69
2022-10-08T01:20:00.655Z,75.93
2022-10-08T01:25:14.473Z,73.94
2022-10-08T01:30:18.101Z,71.20
2022-10-08T01:35:31.986Z,71.80
2022-10-08T01:40:39.281Z,71.21
2022-10-08T01:45:45.978Z,71.71
2022-10-08T01:50:57.561Z,71.85
2022-10-08T01:56:02.638Z,72.11
2022-10-08T02:01:15.745Z,72.50
2022-10-08T02:06:17.306Z,71.90
2022-10-08T02:11:18.706Z,71.20
2022-10-08T02:16:28.245Z,70.90
2022-10-08T02:21:29.886Z,71.36
2022-10-08T02:26:36.941Z,71.22
2022-10-08T02:31:49.610Z,71.82
2022-10-08T02:37:01.641Z,72.02
2022-10-08T02:42:08.494Z,72.75
2022-10-08T02:47:14.362Z,73.07
2022-10-08T02:52:18.746Z,73.82
2022-10-08T02:57:34.126Z,73.24
2022-10-08T03:02:41.442Z,73.65
2022-10-08T03:07:44.058Z,73.60
2022-10-08T03:12:45.995Z,73.77
2022-10-08T03:17:48.700Z,73.79
2022-10-08T03:22:50.259Z,73.51
2022-10-08T03:27:51.754Z,74.04
2022-10-08T03:32:53.136Z,73.89
2022-10-08T03:37:54.564Z,74.52
2022-10-08T03:42:55.966Z,73.56
2022-10-08T03:47:57.374Z,72.99
2022-10-08T03:52:58.776Z,75.88
2022-10-08T03:58:00.157Z,77.88
2022-10-08T04:03:01.608Z,77.76
2022-10-08T04:08:03.245Z,77.67
2022-10-08T04:13:04.661Z,78.56
2022-10-08T04:18:06.274Z,78.49
2022-10-08T04:23:09.054Z,78.01
2022-10-08T04:28:10.493Z,78.67
2022-10-08T04:33:11.914Z,78.65
2022-10-08T04:38:14.392Z,78.43
2022-10-08T04:43:15.856Z,79.05
2022-10-08T04:48:17.271Z,79.28
2022-10-08T04:53:18.662Z,79.69
2022-10-08T04:58:21.302Z,79.67
2022-10-08T05:03:22.691Z,79.12
2022-10-08T05:08:24.156Z,79.62
2022-10-08T05:13:25.674Z,79.80
2022-10-08T05:18:27.078Z,79.80
2022-10-08T05:23:28.520Z,80.16
2022-10-08T05:28:29.969Z,79.89
2022-10-08T05:33:31.422Z,80.69
2022-10-08T05:38:35.191Z,80.48
2022-10-08T05:43:36.867Z,80.63
2022-10-08T05:48:38.947Z,80.95
2022-10-08T05:53:42.161Z,81.23
2022-10-08T05:58:43.963Z,80.98
2022-10-08T06:03:49.369Z,80.87
2022-10-08T06:08:58.522Z,80.85
2022-10-08T06:14:01.139Z,81.19
2022-10-08T06:19:03.984Z,81.32
2022-10-08T06:24:07.892Z,81.60
2022-10-08T06:29:17.138Z,81.71
2022-10-08T06:34:18.697Z,81.48
2022-10-08T06:39:20.196Z,81.09
2022-10-08T06:44:21.599Z,80.95
2022-10-08T06:49:22.981Z,81.41
2022-10-08T06:54:24.566Z,80.70
2022-10-08T06:59:25.952Z,80.08
2022-10-08T07:04:27.360Z,79.33
2022-10-08T07:09:29.065Z,79.85
2022-10-08T07:14:30.495Z,79.98
2022-10-08T07:19:31.913Z,80.46
2022-10-08T07:24:33.426Z,81.37
2022-10-08T07:29:34.965Z,82.00
2022-10-08T07:34:36.580Z,81.16
2022-10-08T07:39:37.993Z,80.95
2022-10-08T07:44:39.387Z,80.96
2022-10-08T07:49:40.789Z,81.02
2022-10-08T07:54:42.201Z,81.12
2022-10-08T07:59:43.658Z,81.54
2022-10-08T08:04:45.086Z,81.57
2022-10-08T08:09:46.484Z,81.28
2022-10-08T08:14:47.903Z,80.94
2022-10-08T08:19:49.358Z,81.20
2022-10-08T08:24:50.791Z,80.42
2022-10-08T08:29:52.240Z,80.67
2022-10-08T08:34:53.712Z,80.73
2022-10-08T08:39:55.108Z,80.76
2022-10-08T08:45:00.462Z,80.25
2022-10-08T08:50:28.075Z,79.83
2022-10-08T08:55:40.994Z,79.36
2022-10-08T09:00:47.092Z,79.55
2022-10-08T09:05:54.842Z,79.64
2022-10-08T09:10:59.156Z,79.55
2022-10-08T09:16:01.462Z,80.04
2022-10-08T09:21:02.886Z,81.08
2022-10-08T09:26:14.963Z,80.66
2022-10-08T09:31:31.747Z,80.10
2022-10-08T09:36:48.203Z,79.08
2022-10-08T09:42:07.937Z,79.40
2022-10-08T09:47:13.110Z,79.01
2022-10-08T09:52:25.203Z,79.23
2022-10-08T09:57:27.803Z,76.71
2022-10-08T10:02:37.959Z,74.24
2022-10-08T10:07:44.830Z,74.46
2022-10-08T10:12:51.073Z,75.14
2022-10-08T10:18:15.779Z,74.33
2022-10-08T10:23:27.635Z,74.23
2022-10-08T10:28:29.034Z,73.74
2022-10-08T10:33:34.084Z,72.89
2022-10-08T10:38:43.310Z,73.61
2022-10-08T10:43:52.647Z,73.06
2022-10-08T10:48:56.003Z,71.91
2022-10-08T10:54:16.677Z,70.82
2022-10-08T10:59:34.021Z,71.95
2022-10-08T11:04:41.139Z,71.79
2022-10-08T11:10:07.776Z,71.42
2022-10-08T11:15:12.174Z,72.36
2022-10-08T11:20:29.272Z,72.39
2022-10-08T11:26:09.868Z,72.65
2022-10-08T11:31:33.130Z,72.86
2022-10-08T11:36:46.118Z,73.81
2022-10-08T11:41:53.608Z,75.05
2022-10-08T11:47:33.816Z,76.24
2022-10-08T11:52:35.310Z,76.33
2022-10-08T11:58:06.171Z,76.42
2022-10-08T12:02:59.490Z,77.75
2022-10-08T12:08:01.306Z,77.76
2022-10-08T12:13:27.809Z,78.50
2022-10-08T12:18:30.955Z,78.49
2022-10-08T12:23:32.313Z,77.81
2022-10-08T12:28:33.784Z,77.25
2022-10-08T12:33:35.247Z,78.08
2022-10-08T12:39:00.984Z,78.56
2022-10-08T12:44:09.517Z,79.26
2022-10-08T12:49:38.287Z,80.08
2022-10-08T12:54:47.344Z,80.43
2022-10-08T12:59:49.747Z,80.21
2022-10-08T13:04:51.204Z,80.37
2022-10-08T13:10:01.757Z,80.06
2022-10-08T13:15:05.985Z,80.11
2022-10-08T13:20:10.146Z,79.72
2022-10-08T13:25:37.588Z,79.80
2022-10-08T13:30:40.131Z,80.15
2022-10-08T13:35:42.652Z,80.01
2022-10-08T13:40:50.509Z,80.16
2022-10-08T13:45:51.949Z,80.92
2022-10-08T13:50:53.626Z,78.76
2022-10-08T13:55:55.172Z,78.52
2022-10-08T14:00:56.669Z,77.05
2022-10-08T14:05:58.201Z,75.95
2022-10-08T14:11:00.016Z,75.73
2022-10-08T14:16:01.496Z,75.90
2022-10-08T14:21:03.844Z,77.23
2022-10-08T14:26:05.362Z,76.97
2022-10-08T14:31:07.039Z,76.09
2022-10-08T14:36:18.128Z,76.67
2022-10-08T14:41:19.520Z,74.02
2022-10-08T14:46:20.939Z,72.93
2022-10-08T14:51:22.373Z,71.12
2022-10-08T14:56:23.769Z,70.24
2022-10-08T15:01:25.360Z,70.16
2022-10-08T15:06:28.048Z,70.00
2022-10-08T15:11:29.531Z,70.29
2022-10-08T15:16:31.329Z,70.37
2022-10-08T15:21:33.545Z,71.27
2022-10-08T15:26:35.326Z,70.32
2022-10-08T15:31:36.770Z,70.78
2022-10-08T15:36:38.266Z,70.29
2022-10-08T15:41:41.412Z,69.28
2022-10-08T15:46:42.822Z,69.08
2022-10-08T15:51:44.256Z,71.33
2022-10-08T15:56:45.646Z,70.26
2022-10-08T16:01:47.082Z,69.04
2022-10-08T16:06:48.524Z,70.40
2022-10-08T16:11:51.082Z,71.19
2022-10-08T16:16:53.494Z,72.60
2022-10-08T16:21:57.092Z,72.85
2022-10-08T16:26:58.508Z,74.29
2022-10-08T16:31:59.938Z,74.37
2022-10-08T16:37:01.602Z,75.29
2022-10-08T16:42:03.242Z,76.16
2022-10-08T16:47:04.872Z,75.45
2022-10-08T16:52:06.260Z,76.77
2022-10-08T16:57:07.772Z,75.83
2022-10-08T17:02:10.301Z,75.22
2022-10-08T17:07:11.732Z,74.81
2022-10-08T17:12:13.163Z,74.18
2022-10-08T17:17:14.642Z,75.07
2022-10-08T17:22:16.059Z,76.00
2022-10-08T17:27:17.492Z,77.18
2022-10-08T17:32:18.897Z,77.29
2022-10-08T17:37:20.301Z,77.85
2022-10-08T17:42:21.676Z,77.54
2022-10-08T17:47:28.353Z,76.91
2022-10-08T17:52:30.583Z,77.69
2022-10-08T17:57:31.983Z,77.46
2022-10-08T18:02:33.430Z,76.58
2022-10-08T18:07:34.882Z,76.25
2022-10-08T18:12:36.264Z,77.54
2022-10-08T18:17:37.685Z,77.51
2022-10-08T18:22:39.167Z,77.10
2022-10-08T18:27:40.567Z,76.98
2022-10-08T18:32:42.401Z,77.27
2022-10-08T18:37:43.793Z,77.68
2022-10-08T18:42:45.505Z,77.05
2022-10-08T18:47:50.186Z,76.62
2022-10-08T18:52:51.646Z,76.38
2022-10-08T18:57:53.683Z,76.74
2022-10-08T19:02:55.921Z,75.92
2022-10-08T19:07:57.371Z,76.74
2022-10-08T19:12:58.780Z,75.97
2022-10-08T19:18:00.204Z,77.98
2022-10-08T19:23:02.029Z,77.76
2022-10-08T19:28:03.814Z,77.38
2022-10-08T19:33:05.259Z,78.61
2022-10-08T19:38:06.665Z,78.69
2022-10-08T19:43:08.078Z,78.39
2022-10-08T19:48:11.212Z,78.95
2022-10-08T19:53:12.786Z,78.45
2022-10-08T19:58:14.207Z,79.09
2022-10-08T20:03:15.625Z,79.18
2022-10-08T20:08:17.096Z,79.17
2022-10-08T20:13:18.504Z,79.73
2022-10-08T20:18:19.910Z,80.04
2022-10-08T20:23:21.310Z,79.91
2022-10-08T20:28:22.758Z,80.21
2022-10-08T20:33:24.191Z,80.32
2022-10-08T20:38:29.246Z,81.46
2022-10-08T20:43:32.423Z,81.13
2022-10-08T20:48:36.026Z,81.47
2022-10-08T20:53:37.732Z,80.93
2022-10-08T20:58:39.189Z,80.86
2022-10-08T21:03:42.031Z,81.10
2022-10-08T21:08:46.178Z,81.38
2022-10-08T21:13:48.038Z,81.48
2022-10-08T21:18:54.867Z,81.61
2022-10-08T21:23:57.321Z,80.98
2022-10-08T21:29:00.835Z,81.36
2022-10-08T21:34:02.570Z,80.92
2022-10-08T21:39:06.146Z,81.67
2022-10-08T21:44:08.741Z,81.61
2022-10-08T21:49:28.057Z,81.74
2022-10-08T21:54:29.535Z,81.60
2022-10-08T21:59:30.945Z,81.38
2022-10-08T22:04:32.407Z,81.93
2022-10-08T22:09:33.878Z,81.81
2022-10-08T22:14:35.402Z,81.65
2022-10-08T22:19:36.813Z,80.97
2022-10-08T22:24:38.212Z,81.32
2022-10-08T22:29:39.617Z,80.95
2022-10-08T22:34:41.036Z,80.51
2022-10-08T22:39:42.455Z,78.60
2022-10-08T22:44:43.905Z,77.93
2022-10-08T22:49:45.294Z,77.71
2022-10-08T22:54:46.703Z,77.05
2022-10-08T22:59:48.168Z,77.26
2022-10-08T23:04:49.560Z,77.37
2022-10-08T23:09:50.967Z,76.83
2022-10-08T23:14:52.415Z,76.48
2022-10-08T23:19:53.803Z,75.36
2022-10-08T23:24:55.259Z,74.38
2022-10-08T23:29:56.672Z,75.06
2022-10-08T23:34:58.058Z,73.86
2022-10-08T23:39:59.459Z,73.19
2022-10-08T23:45:00.848Z,72.90
2022-10-08T23:50:02.242Z,73.03
2022-10-08T23:55:03.865Z,72.03
